Terminal Aerodrome Forecast
Issued by NWS

Home | Current Version | Previous Version | Text Only | Print | Product List | Glossary Off
Versions: 1 2 3 4 5 6 7 8 9 10 11 12 13 14 15 16

000
FTUS43 KICT 281500 AAA
TAFRSL
TAF AMD
KRSL 281500Z 2815/2912 22014G23KT P6SM SCT100 SCT250
     FM282100 35014KT P6SM VCTS SCT070CB
     FM290300 02010KT P6SM BKN250=

USA.gov is the U.S. government's official web portal to all federal, state and local government web resources and services.